sensor_id;sensor_type;location;lat;lon;timestamp;P1;durP1;ratioP1;P2;durP2;ratioP2
68792;SDS011;55778;54.346;10.210;2023-04-15T00:01:21;38.10;;;12.15;;
68792;SDS011;55778;54.346;10.210;2023-04-15T00:03:49;38.45;;;12.07;;
68792;SDS011;55778;54.346;10.210;2023-04-15T00:06:16;39.33;;;11.73;;
68792;SDS011;55778;54.346;10.210;2023-04-15T00:08:42;41.28;;;15.35;;
68792;SDS011;55778;54.346;10.210;2023-04-15T00:11:07;47.40;;;14.90;;
68792;SDS011;55778;54.346;10.210;2023-04-15T00:13:32;49.05;;;14.00;;
68792;SDS011;55778;54.346;10.210;2023-04-15T00:15:58;48.28;;;14.88;;
68792;SDS011;55778;54.346;10.210;2023-04-15T00:18:24;43.03;;;13.63;;
68792;SDS011;55778;54.346;10.210;2023-04-15T00:20:50;44.40;;;13.27;;
68792;SDS011;55778;54.346;10.210;2023-04-15T00:23:16;48.58;;;13.32;;
68792;SDS011;55778;54.346;10.210;2023-04-15T00:25:42;45.35;;;12.73;;
68792;SDS011;55778;54.346;10.210;2023-04-15T00:28:07;45.13;;;12.68;;
68792;SDS011;55778;54.346;10.210;2023-04-15T00:30:33;49.75;;;18.23;;
68792;SDS011;55778;54.346;10.210;2023-04-15T00:32:59;43.65;;;12.95;;
68792;SDS011;55778;54.346;10.210;2023-04-15T00:35:26;39.28;;;12.45;;
68792;SDS011;55778;54.346;10.210;2023-04-15T00:37:51;42.67;;;12.98;;
68792;SDS011;55778;54.346;10.210;2023-04-15T00:40:17;40.25;;;13.38;;
68792;SDS011;55778;54.346;10.210;2023-04-15T00:42:44;44.05;;;14.18;;
68792;SDS011;55778;54.346;10.210;2023-04-15T00:45:10;43.20;;;14.40;;
68792;SDS011;55778;54.346;10.210;2023-04-15T00:47:36;42.63;;;12.75;;
68792;SDS011;55778;54.346;10.210;2023-04-15T00:50:05;46.88;;;12.80;;
68792;SDS011;55778;54.346;10.210;2023-04-15T00:52:31;43.20;;;12.60;;
68792;SDS011;55778;54.346;10.210;2023-04-15T00:54:57;51.63;;;14.82;;
68792;SDS011;55778;54.346;10.210;2023-04-15T00:57:22;44.17;;;13.45;;
68792;SDS011;55778;54.346;10.210;2023-04-15T00:59:48;41.38;;;12.25;;
68792;SDS011;55778;54.346;10.210;2023-04-15T01:02:13;44.60;;;11.80;;
68792;SDS011;55778;54.346;10.210;2023-04-15T01:04:39;46.65;;;12.52;;
68792;SDS011;55778;54.346;10.210;2023-04-15T01:07:05;43.83;;;11.35;;
68792;SDS011;55778;54.346;10.210;2023-04-15T01:09:31;44.05;;;12.15;;
68792;SDS011;55778;54.346;10.210;2023-04-15T01:11:57;46.80;;;12.93;;
68792;SDS011;55778;54.346;10.210;2023-04-15T01:14:25;44.72;;;12.43;;
68792;SDS011;55778;54.346;10.210;2023-04-15T01:16:51;53.15;;;14.57;;
68792;SDS011;55778;54.346;10.210;2023-04-15T01:19:17;51.80;;;13.90;;
68792;SDS011;55778;54.346;10.210;2023-04-15T01:21:42;56.03;;;13.88;;
68792;SDS011;55778;54.346;10.210;2023-04-15T01:24:09;52.38;;;13.55;;
68792;SDS011;55778;54.346;10.210;2023-04-15T01:26:36;54.10;;;14.73;;
68792;SDS011;55778;54.346;10.210;2023-04-15T01:29:02;66.68;;;15.90;;
68792;SDS011;55778;54.346;10.210;2023-04-15T01:31:28;65.40;;;14.88;;
68792;SDS011;55778;54.346;10.210;2023-04-15T01:33:53;59.97;;;15.73;;
68792;SDS011;55778;54.346;10.210;2023-04-15T01:36:18;57.47;;;16.35;;
68792;SDS011;55778;54.346;10.210;2023-04-15T01:38:44;54.88;;;15.52;;
68792;SDS011;55778;54.346;10.210;2023-04-15T01:41:09;54.55;;;14.00;;
68792;SDS011;55778;54.346;10.210;2023-04-15T01:43:35;55.75;;;15.45;;
68792;SDS011;55778;54.346;10.210;2023-04-15T01:46:01;52.10;;;14.57;;
68792;SDS011;55778;54.346;10.210;2023-04-15T01:48:27;54.47;;;14.38;;
68792;SDS011;55778;54.346;10.210;2023-04-15T01:50:55;61.55;;;14.38;;
68792;SDS011;55778;54.346;10.210;2023-04-15T01:53:22;59.78;;;15.05;;
68792;SDS011;55778;54.346;10.210;2023-04-15T01:55:48;58.08;;;13.88;;
68792;SDS011;55778;54.346;10.210;2023-04-15T01:58:14;61.83;;;14.15;;
68792;SDS011;55778;54.346;10.210;2023-04-15T02:00:39;46.92;;;12.88;;
68792;SDS011;55778;54.346;10.210;2023-04-15T02:03:05;52.45;;;13.45;;
68792;SDS011;55778;54.346;10.210;2023-04-15T02:05:31;48.35;;;13.13;;
68792;SDS011;55778;54.346;10.210;2023-04-15T02:07:56;46.78;;;12.57;;
68792;SDS011;55778;54.346;10.210;2023-04-15T02:10:22;55.67;;;13.40;;
68792;SDS011;55778;54.346;10.210;2023-04-15T02:12:47;50.13;;;12.35;;
68792;SDS011;55778;54.346;10.210;2023-04-15T02:15:13;48.13;;;12.30;;
68792;SDS011;55778;54.346;10.210;2023-04-15T02:17:38;48.83;;;13.35;;
68792;SDS011;55778;54.346;10.210;2023-04-15T02:20:04;51.15;;;13.73;;
68792;SDS011;55778;54.346;10.210;2023-04-15T02:22:30;58.83;;;14.32;;
68792;SDS011;55778;54.346;10.210;2023-04-15T02:24:55;54.63;;;13.77;;
68792;SDS011;55778;54.346;10.210;2023-04-15T02:27:21;64.18;;;15.23;;
68792;SDS011;55778;54.346;10.210;2023-04-15T02:29:46;57.80;;;14.95;;
68792;SDS011;55778;54.346;10.210;2023-04-15T02:32:12;50.80;;;13.57;;
68792;SDS011;55778;54.346;10.210;2023-04-15T02:34:38;55.88;;;14.10;;
68792;SDS011;55778;54.346;10.210;2023-04-15T02:37:10;55.30;;;14.85;;
68792;SDS011;55778;54.346;10.210;2023-04-15T02:39:37;62.10;;;14.60;;
68792;SDS011;55778;54.346;10.210;2023-04-15T02:42:03;55.92;;;14.45;;
68792;SDS011;55778;54.346;10.210;2023-04-15T02:44:29;57.72;;;14.13;;
68792;SDS011;55778;54.346;10.210;2023-04-15T02:46:56;57.50;;;14.73;;
68792;SDS011;55778;54.346;10.210;2023-04-15T02:49:22;55.20;;;14.73;;
68792;SDS011;55778;54.346;10.210;2023-04-15T02:51:48;61.22;;;16.25;;
68792;SDS011;55778;54.346;10.210;2023-04-15T02:54:20;67.13;;;14.98;;
68792;SDS011;55778;54.346;10.210;2023-04-15T02:56:50;68.65;;;17.42;;
68792;SDS011;55778;54.346;10.210;2023-04-15T02:59:19;60.13;;;15.60;;
68792;SDS011;55778;54.346;10.210;2023-04-15T03:01:44;65.35;;;16.13;;
68792;SDS011;55778;54.346;10.210;2023-04-15T03:04:10;78.50;;;20.02;;
68792;SDS011;55778;54.346;10.210;2023-04-15T03:06:35;68.40;;;16.52;;
68792;SDS011;55778;54.346;10.210;2023-04-15T03:09:00;73.50;;;16.98;;
68792;SDS011;55778;54.346;10.210;2023-04-15T03:11:27;80.75;;;17.73;;
68792;SDS011;55778;54.346;10.210;2023-04-15T03:13:53;91.38;;;20.17;;
68792;SDS011;55778;54.346;10.210;2023-04-15T03:16:18;83.50;;;18.23;;
68792;SDS011;55778;54.346;10.210;2023-04-15T03:18:44;80.65;;;18.92;;
68792;SDS011;55778;54.346;10.210;2023-04-15T03:21:09;92.72;;;19.85;;
68792;SDS011;55778;54.346;10.210;2023-04-15T03:23:35;103.63;;;20.02;;
68792;SDS011;55778;54.346;10.210;2023-04-15T03:26:01;99.70;;;20.58;;
68792;SDS011;55778;54.346;10.210;2023-04-15T03:28:26;101.25;;;20.73;;
68792;SDS011;55778;54.346;10.210;2023-04-15T03:30:53;113.78;;;20.13;;
68792;SDS011;55778;54.346;10.210;2023-04-15T03:33:19;114.00;;;22.17;;
68792;SDS011;55778;54.346;10.210;2023-04-15T03:35:44;122.90;;;23.48;;
68792;SDS011;55778;54.346;10.210;2023-04-15T03:38:09;119.93;;;22.63;;
68792;SDS011;55778;54.346;10.210;2023-04-15T03:40:35;123.97;;;23.80;;
68792;SDS011;55778;54.346;10.210;2023-04-15T03:43:00;113.30;;;23.92;;
68792;SDS011;55778;54.346;10.210;2023-04-15T03:45:26;136.73;;;26.92;;
68792;SDS011;55778;54.346;10.210;2023-04-15T03:47:51;136.95;;;26.48;;
68792;SDS011;55778;54.346;10.210;2023-04-15T03:50:16;152.02;;;27.95;;
68792;SDS011;55778;54.346;10.210;2023-04-15T03:52:43;148.55;;;27.50;;
68792;SDS011;55778;54.346;10.210;2023-04-15T03:55:08;162.40;;;28.92;;
68792;SDS011;55778;54.346;10.210;2023-04-15T03:57:34;149.55;;;26.77;;
68792;SDS011;55778;54.346;10.210;2023-04-15T04:00:06;163.43;;;28.45;;
68792;SDS011;55778;54.346;10.210;2023-04-15T04:02:36;147.70;;;27.33;;
68792;SDS011;55778;54.346;10.210;2023-04-15T04:05:01;155.85;;;29.63;;
68792;SDS011;55778;54.346;10.210;2023-04-15T04:07:27;140.93;;;28.75;;
68792;SDS011;55778;54.346;10.210;2023-04-15T04:09:52;161.73;;;29.52;;
68792;SDS011;55778;54.346;10.210;2023-04-15T04:12:18;155.27;;;30.70;;
68792;SDS011;55778;54.346;10.210;2023-04-15T04:14:43;159.60;;;31.20;;
68792;SDS011;55778;54.346;10.210;2023-04-15T04:17:09;144.25;;;30.85;;
68792;SDS011;55778;54.346;10.210;2023-04-15T04:19:34;160.20;;;33.50;;
68792;SDS011;55778;54.346;10.210;2023-04-15T04:22:00;141.43;;;30.00;;
68792;SDS011;55778;54.346;10.210;2023-04-15T04:24:25;145.00;;;31.08;;
68792;SDS011;55778;54.346;10.210;2023-04-15T04:26:50;151.32;;;32.60;;
68792;SDS011;55778;54.346;10.210;2023-04-15T04:29:16;147.88;;;32.35;;
68792;SDS011;55778;54.346;10.210;2023-04-15T04:31:41;146.52;;;33.25;;
68792;SDS011;55778;54.346;10.210;2023-04-15T04:34:07;157.20;;;34.00;;
68792;SDS011;55778;54.346;10.210;2023-04-15T04:36:32;155.98;;;34.60;;
68792;SDS011;55778;54.346;10.210;2023-04-15T04:38:57;170.23;;;36.47;;
68792;SDS011;55778;54.346;10.210;2023-04-15T04:41:23;157.55;;;35.05;;
68792;SDS011;55778;54.346;10.210;2023-04-15T04:43:48;173.05;;;34.72;;
68792;SDS011;55778;54.346;10.210;2023-04-15T04:46:13;177.20;;;35.78;;
68792;SDS011;55778;54.346;10.210;2023-04-15T04:48:39;162.45;;;37.85;;
68792;SDS011;55778;54.346;10.210;2023-04-15T04:51:04;173.77;;;35.50;;
68792;SDS011;55778;54.346;10.210;2023-04-15T04:53:33;158.73;;;36.30;;
68792;SDS011;55778;54.346;10.210;2023-04-15T04:55:58;154.85;;;36.97;;
68792;SDS011;55778;54.346;10.210;2023-04-15T04:58:24;156.50;;;36.70;;
68792;SDS011;55778;54.346;10.210;2023-04-15T05:00:49;160.13;;;34.40;;
68792;SDS011;55778;54.346;10.210;2023-04-15T05:03:15;143.68;;;33.70;;
68792;SDS011;55778;54.346;10.210;2023-04-15T05:05:41;154.18;;;35.38;;
68792;SDS011;55778;54.346;10.210;2023-04-15T05:08:06;165.93;;;36.80;;
68792;SDS011;55778;54.346;10.210;2023-04-15T05:10:31;160.57;;;35.90;;
68792;SDS011;55778;54.346;10.210;2023-04-15T05:12:57;154.43;;;33.83;;
68792;SDS011;55778;54.346;10.210;2023-04-15T05:15:23;158.70;;;35.22;;
68792;SDS011;55778;54.346;10.210;2023-04-15T05:17:48;148.45;;;34.08;;
68792;SDS011;55778;54.346;10.210;2023-04-15T05:20:14;160.00;;;35.00;;
68792;SDS011;55778;54.346;10.210;2023-04-15T05:22:39;146.38;;;32.92;;
68792;SDS011;55778;54.346;10.210;2023-04-15T05:25:05;154.70;;;38.35;;
68792;SDS011;55778;54.346;10.210;2023-04-15T05:27:30;141.73;;;34.55;;
68792;SDS011;55778;54.346;10.210;2023-04-15T05:29:56;135.65;;;34.25;;
68792;SDS011;55778;54.346;10.210;2023-04-15T05:32:21;126.03;;;33.67;;
68792;SDS011;55778;54.346;10.210;2023-04-15T05:34:47;125.68;;;33.10;;
68792;SDS011;55778;54.346;10.210;2023-04-15T05:37:12;114.03;;;31.45;;
68792;SDS011;55778;54.346;10.210;2023-04-15T05:39:37;112.53;;;32.92;;
68792;SDS011;55778;54.346;10.210;2023-04-15T05:42:03;115.13;;;31.45;;
68792;SDS011;55778;54.346;10.210;2023-04-15T05:44:29;118.15;;;32.50;;
68792;SDS011;55778;54.346;10.210;2023-04-15T05:46:55;96.30;;;30.20;;
68792;SDS011;55778;54.346;10.210;2023-04-15T05:49:20;109.28;;;32.13;;
68792;SDS011;55778;54.346;10.210;2023-04-15T05:51:46;95.07;;;31.02;;
68792;SDS011;55778;54.346;10.210;2023-04-15T05:54:12;98.15;;;30.98;;
68792;SDS011;55778;54.346;10.210;2023-04-15T05:56:37;88.28;;;28.85;;
68792;SDS011;55778;54.346;10.210;2023-04-15T05:59:02;106.22;;;31.20;;
68792;SDS011;55778;54.346;10.210;2023-04-15T06:01:28;101.18;;;30.48;;
68792;SDS011;55778;54.346;10.210;2023-04-15T06:03:54;88.30;;;28.67;;
68792;SDS011;55778;54.346;10.210;2023-04-15T06:06:19;96.95;;;31.42;;
68792;SDS011;55778;54.346;10.210;2023-04-15T06:08:45;97.10;;;30.08;;
68792;SDS011;55778;54.346;10.210;2023-04-15T06:11:10;96.90;;;31.15;;
68792;SDS011;55778;54.346;10.210;2023-04-15T06:13:36;95.75;;;31.10;;
68792;SDS011;55778;54.346;10.210;2023-04-15T06:16:01;99.75;;;30.70;;
68792;SDS011;55778;54.346;10.210;2023-04-15T06:18:28;101.43;;;32.40;;
68792;SDS011;55778;54.346;10.210;2023-04-15T06:20:53;99.05;;;31.95;;
68792;SDS011;55778;54.346;10.210;2023-04-15T06:23:18;90.68;;;28.92;;
68792;SDS011;55778;54.346;10.210;2023-04-15T06:25:44;81.88;;;28.77;;
68792;SDS011;55778;54.346;10.210;2023-04-15T06:28:09;82.15;;;28.80;;
68792;SDS011;55778;54.346;10.210;2023-04-15T06:30:35;82.88;;;27.70;;
68792;SDS011;55778;54.346;10.210;2023-04-15T06:33:00;84.10;;;29.20;;
68792;SDS011;55778;54.346;10.210;2023-04-15T06:35:29;83.35;;;28.38;;
68792;SDS011;55778;54.346;10.210;2023-04-15T06:37:54;76.75;;;27.90;;
68792;SDS011;55778;54.346;10.210;2023-04-15T06:40:20;73.47;;;26.65;;
68792;SDS011;55778;54.346;10.210;2023-04-15T06:42:46;66.07;;;26.17;;
68792;SDS011;55778;54.346;10.210;2023-04-15T06:45:11;66.28;;;25.10;;
68792;SDS011;55778;54.346;10.210;2023-04-15T06:47:37;67.80;;;26.38;;
68792;SDS011;55778;54.346;10.210;2023-04-15T06:50:02;67.10;;;25.15;;
68792;SDS011;55778;54.346;10.210;2023-04-15T06:52:28;59.65;;;24.20;;
68792;SDS011;55778;54.346;10.210;2023-04-15T06:54:53;61.92;;;25.48;;
68792;SDS011;55778;54.346;10.210;2023-04-15T06:57:18;56.28;;;23.33;;
68792;SDS011;55778;54.346;10.210;2023-04-15T06:59:44;60.40;;;23.65;;
68792;SDS011;55778;54.346;10.210;2023-04-15T07:02:10;55.55;;;23.67;;
68792;SDS011;55778;54.346;10.210;2023-04-15T07:04:37;56.85;;;22.73;;
68792;SDS011;55778;54.346;10.210;2023-04-15T07:07:02;50.25;;;22.92;;
68792;SDS011;55778;54.346;10.210;2023-04-15T07:09:28;49.42;;;24.00;;
68792;SDS011;55778;54.346;10.210;2023-04-15T07:11:53;50.85;;;22.33;;
68792;SDS011;55778;54.346;10.210;2023-04-15T07:14:19;47.50;;;22.00;;
68792;SDS011;55778;54.346;10.210;2023-04-15T07:16:44;52.85;;;23.00;;
68792;SDS011;55778;54.346;10.210;2023-04-15T07:19:10;49.85;;;23.33;;
68792;SDS011;55778;54.346;10.210;2023-04-15T07:21:36;52.05;;;22.58;;
68792;SDS011;55778;54.346;10.210;2023-04-15T07:24:01;55.38;;;23.23;;
68792;SDS011;55778;54.346;10.210;2023-04-15T07:26:27;46.65;;;21.00;;
68792;SDS011;55778;54.346;10.210;2023-04-15T07:28:53;50.30;;;21.35;;
68792;SDS011;55778;54.346;10.210;2023-04-15T07:31:19;47.75;;;21.20;;
68792;SDS011;55778;54.346;10.210;2023-04-15T07:33:45;46.45;;;21.00;;
68792;SDS011;55778;54.346;10.210;2023-04-15T07:36:10;50.53;;;21.35;;
68792;SDS011;55778;54.346;10.210;2023-04-15T07:38:36;44.90;;;20.25;;
68792;SDS011;55778;54.346;10.210;2023-04-15T07:41:01;49.33;;;21.13;;
68792;SDS011;55778;54.346;10.210;2023-04-15T07:43:27;44.53;;;20.00;;
68792;SDS011;55778;54.346;10.210;2023-04-15T07:45:55;48.55;;;21.48;;
68792;SDS011;55778;54.346;10.210;2023-04-15T07:48:21;44.15;;;20.13;;
68792;SDS011;55778;54.346;10.210;2023-04-15T07:50:46;42.63;;;20.70;;
68792;SDS011;55778;54.346;10.210;2023-04-15T07:53:12;46.85;;;20.60;;
68792;SDS011;55778;54.346;10.210;2023-04-15T07:55:38;43.78;;;19.67;;
68792;SDS011;55778;54.346;10.210;2023-04-15T07:58:03;48.15;;;23.10;;
68792;SDS011;55778;54.346;10.210;2023-04-15T08:00:28;42.85;;;20.35;;
68792;SDS011;55778;54.346;10.210;2023-04-15T08:02:55;44.03;;;20.35;;
68792;SDS011;55778;54.346;10.210;2023-04-15T08:05:21;41.63;;;19.38;;
68792;SDS011;55778;54.346;10.210;2023-04-15T08:07:46;40.72;;;19.48;;
68792;SDS011;55778;54.346;10.210;2023-04-15T08:10:12;38.95;;;19.60;;
68792;SDS011;55778;54.346;10.210;2023-04-15T08:12:38;41.00;;;19.85;;
68792;SDS011;55778;54.346;10.210;2023-04-15T08:15:03;39.28;;;19.90;;
68792;SDS011;55778;54.346;10.210;2023-04-15T08:17:29;41.33;;;20.42;;
68792;SDS011;55778;54.346;10.210;2023-04-15T08:19:55;40.78;;;19.95;;
68792;SDS011;55778;54.346;10.210;2023-04-15T08:22:21;44.17;;;19.98;;
68792;SDS011;55778;54.346;10.210;2023-04-15T08:24:46;39.42;;;19.33;;
68792;SDS011;55778;54.346;10.210;2023-04-15T08:27:12;43.65;;;19.63;;
68792;SDS011;55778;54.346;10.210;2023-04-15T08:29:37;43.85;;;19.23;;
68792;SDS011;55778;54.346;10.210;2023-04-15T08:32:03;42.17;;;19.75;;
68792;SDS011;55778;54.346;10.210;2023-04-15T08:34:28;56.05;;;19.35;;
68792;SDS011;55778;54.346;10.210;2023-04-15T08:36:54;37.85;;;19.02;;
68792;SDS011;55778;54.346;10.210;2023-04-15T08:39:20;38.95;;;18.00;;
68792;SDS011;55778;54.346;10.210;2023-04-15T08:41:46;35.28;;;18.92;;
68792;SDS011;55778;54.346;10.210;2023-04-15T08:44:16;39.47;;;18.90;;
68792;SDS011;55778;54.346;10.210;2023-04-15T08:46:42;37.85;;;18.90;;
68792;SDS011;55778;54.346;10.210;2023-04-15T08:49:11;44.80;;;20.88;;
68792;SDS011;55778;54.346;10.210;2023-04-15T08:51:40;41.37;;;20.23;;
68792;SDS011;55778;54.346;10.210;2023-04-15T08:54:07;43.10;;;19.30;;
68792;SDS011;55778;54.346;10.210;2023-04-15T08:56:33;41.53;;;20.15;;
68792;SDS011;55778;54.346;10.210;2023-04-15T08:58:59;39.42;;;18.85;;
68792;SDS011;55778;54.346;10.210;2023-04-15T09:01:25;40.55;;;19.35;;
68792;SDS011;55778;54.346;10.210;2023-04-15T09:03:51;35.08;;;19.15;;
68792;SDS011;55778;54.346;10.210;2023-04-15T09:08:46;40.17;;;19.25;;
68792;SDS011;55778;54.346;10.210;2023-04-15T09:11:12;36.92;;;18.70;;
68792;SDS011;55778;54.346;10.210;2023-04-15T09:13:37;34.10;;;17.70;;
68792;SDS011;55778;54.346;10.210;2023-04-15T09:16:04;36.53;;;19.08;;
68792;SDS011;55778;54.346;10.210;2023-04-15T09:18:30;34.30;;;17.40;;
68792;SDS011;55778;54.346;10.210;2023-04-15T09:21:11;31.92;;;17.40;;
68792;SDS011;55778;54.346;10.210;2023-04-15T09:23:39;30.00;;;16.23;;
68792;SDS011;55778;54.346;10.210;2023-04-15T09:26:37;29.23;;;16.63;;
68792;SDS011;55778;54.346;10.210;2023-04-15T09:29:10;26.07;;;15.77;;
68792;SDS011;55778;54.346;10.210;2023-04-15T09:31:39;28.48;;;15.65;;
68792;SDS011;55778;54.346;10.210;2023-04-15T09:34:06;26.40;;;15.50;;
68792;SDS011;55778;54.346;10.210;2023-04-15T09:39:15;26.38;;;15.18;;
68792;SDS011;55778;54.346;10.210;2023-04-15T09:41:41;26.48;;;15.40;;
68792;SDS011;55778;54.346;10.210;2023-04-15T09:44:20;27.20;;;15.75;;
68792;SDS011;55778;54.346;10.210;2023-04-15T09:46:49;26.92;;;14.60;;
68792;SDS011;55778;54.346;10.210;2023-04-15T09:49:14;23.88;;;14.15;;
68792;SDS011;55778;54.346;10.210;2023-04-15T09:51:41;22.42;;;14.68;;
68792;SDS011;55778;54.346;10.210;2023-04-15T09:54:08;24.77;;;14.00;;
68792;SDS011;55778;54.346;10.210;2023-04-15T09:56:34;20.75;;;13.65;;
68792;SDS011;55778;54.346;10.210;2023-04-15T09:59:02;21.90;;;13.57;;
68792;SDS011;55778;54.346;10.210;2023-04-15T10:01:29;25.95;;;13.00;;
68792;SDS011;55778;54.346;10.210;2023-04-15T10:03:55;22.80;;;13.68;;
68792;SDS011;55778;54.346;10.210;2023-04-15T10:06:22;21.88;;;13.00;;
68792;SDS011;55778;54.346;10.210;2023-04-15T10:08:50;19.58;;;13.00;;
68792;SDS011;55778;54.346;10.210;2023-04-15T10:11:17;20.52;;;13.07;;
68792;SDS011;55778;54.346;10.210;2023-04-15T10:13:48;20.90;;;13.02;;
68792;SDS011;55778;54.346;10.210;2023-04-15T10:16:14;21.60;;;13.13;;
68792;SDS011;55778;54.346;10.210;2023-04-15T10:18:43;22.30;;;12.43;;
68792;SDS011;55778;54.346;10.210;2023-04-15T10:21:11;18.65;;;12.68;;
68792;SDS011;55778;54.346;10.210;2023-04-15T10:23:42;19.92;;;12.95;;
68792;SDS011;55778;54.346;10.210;2023-04-15T10:26:11;20.73;;;13.10;;
68792;SDS011;55778;54.346;10.210;2023-04-15T10:28:39;22.85;;;13.98;;
68792;SDS011;55778;54.346;10.210;2023-04-15T10:31:04;22.40;;;13.65;;
68792;SDS011;55778;54.346;10.210;2023-04-15T10:33:31;21.75;;;13.85;;
68792;SDS011;55778;54.346;10.210;2023-04-15T10:35:57;20.92;;;13.13;;
68792;SDS011;55778;54.346;10.210;2023-04-15T10:38:37;21.25;;;13.52;;
68792;SDS011;55778;54.346;10.210;2023-04-15T10:41:20;21.30;;;13.07;;
68792;SDS011;55778;54.346;10.210;2023-04-15T10:46:21;21.60;;;13.35;;
68792;SDS011;55778;54.346;10.210;2023-04-15T10:51:35;21.80;;;13.93;;
68792;SDS011;55778;54.346;10.210;2023-04-15T10:54:05;22.05;;;14.73;;
68792;SDS011;55778;54.346;10.210;2023-04-15T10:56:49;22.42;;;14.38;;
68792;SDS011;55778;54.346;10.210;2023-04-15T10:59:16;21.42;;;14.10;;
68792;SDS011;55778;54.346;10.210;2023-04-15T11:01:52;25.60;;;16.13;;
68792;SDS011;55778;54.346;10.210;2023-04-15T11:07:15;22.38;;;15.45;;
68792;SDS011;55778;54.346;10.210;2023-04-15T11:09:57;23.80;;;15.20;;
68792;SDS011;55778;54.346;10.210;2023-04-15T11:12:22;22.75;;;14.68;;
68792;SDS011;55778;54.346;10.210;2023-04-15T11:14:59;23.92;;;15.68;;
68792;SDS011;55778;54.346;10.210;2023-04-15T11:17:51;24.13;;;16.80;;
68792;SDS011;55778;54.346;10.210;2023-04-15T11:20:17;24.13;;;16.80;;
68792;SDS011;55778;54.346;10.210;2023-04-15T11:22:49;26.08;;;16.48;;
68792;SDS011;55778;54.346;10.210;2023-04-15T11:27:47;30.00;;;16.55;;
68792;SDS011;55778;54.346;10.210;2023-04-15T11:30:17;26.20;;;16.42;;
68792;SDS011;55778;54.346;10.210;2023-04-15T11:32:45;26.23;;;16.70;;
68792;SDS011;55778;54.346;10.210;2023-04-15T11:35:11;24.50;;;15.60;;
68792;SDS011;55778;54.346;10.210;2023-04-15T11:37:36;23.00;;;15.70;;
68792;SDS011;55778;54.346;10.210;2023-04-15T11:40:02;23.70;;;15.40;;
68792;SDS011;55778;54.346;10.210;2023-04-15T11:42:28;23.30;;;15.32;;
68792;SDS011;55778;54.346;10.210;2023-04-15T11:45:08;24.35;;;17.08;;
68792;SDS011;55778;54.346;10.210;2023-04-15T11:47:36;26.48;;;15.52;;
68792;SDS011;55778;54.346;10.210;2023-04-15T11:50:17;25.02;;;17.55;;
68792;SDS011;55778;54.346;10.210;2023-04-15T11:55:18;23.98;;;16.45;;
68792;SDS011;55778;54.346;10.210;2023-04-15T11:57:43;27.30;;;17.20;;
68792;SDS011;55778;54.346;10.210;2023-04-15T12:00:09;27.92;;;18.02;;
68792;SDS011;55778;54.346;10.210;2023-04-15T12:02:38;28.00;;;17.83;;
68792;SDS011;55778;54.346;10.210;2023-04-15T12:05:04;28.98;;;18.17;;
68792;SDS011;55778;54.346;10.210;2023-04-15T12:07:30;30.17;;;19.30;;
68792;SDS011;55778;54.346;10.210;2023-04-15T12:09:56;24.60;;;16.27;;
68792;SDS011;55778;54.346;10.210;2023-04-15T12:12:25;26.80;;;17.10;;
68792;SDS011;55778;54.346;10.210;2023-04-15T12:14:52;30.23;;;18.65;;
68792;SDS011;55778;54.346;10.210;2023-04-15T12:17:17;28.88;;;17.05;;
68792;SDS011;55778;54.346;10.210;2023-04-15T12:19:43;25.80;;;16.33;;
68792;SDS011;55778;54.346;10.210;2023-04-15T12:22:13;26.25;;;16.05;;
68792;SDS011;55778;54.346;10.210;2023-04-15T12:24:41;22.40;;;15.43;;
68792;SDS011;55778;54.346;10.210;2023-04-15T12:27:13;26.00;;;15.85;;
68792;SDS011;55778;54.346;10.210;2023-04-15T12:29:40;25.40;;;16.10;;
68792;SDS011;55778;54.346;10.210;2023-04-15T12:32:14;24.00;;;16.27;;
68792;SDS011;55778;54.346;10.210;2023-04-15T12:34:41;24.63;;;16.30;;
68792;SDS011;55778;54.346;10.210;2023-04-15T12:37:14;25.70;;;16.63;;
68792;SDS011;55778;54.346;10.210;2023-04-15T12:39:43;25.15;;;16.17;;
68792;SDS011;55778;54.346;10.210;2023-04-15T12:42:12;26.45;;;16.27;;
68792;SDS011;55778;54.346;10.210;2023-04-15T12:44:38;24.65;;;16.98;;
68792;SDS011;55778;54.346;10.210;2023-04-15T12:47:04;27.55;;;16.75;;
68792;SDS011;55778;54.346;10.210;2023-04-15T12:49:29;22.98;;;15.88;;
68792;SDS011;55778;54.346;10.210;2023-04-15T12:51:57;24.70;;;15.82;;
68792;SDS011;55778;54.346;10.210;2023-04-15T12:54:24;24.17;;;16.50;;
68792;SDS011;55778;54.346;10.210;2023-04-15T12:56:51;25.15;;;16.00;;
68792;SDS011;55778;54.346;10.210;2023-04-15T12:59:17;24.17;;;14.93;;
68792;SDS011;55778;54.346;10.210;2023-04-15T13:01:43;23.10;;;15.60;;
68792;SDS011;55778;54.346;10.210;2023-04-15T13:04:09;22.73;;;15.50;;
68792;SDS011;55778;54.346;10.210;2023-04-15T13:06:35;25.00;;;15.10;;
68792;SDS011;55778;54.346;10.210;2023-04-15T13:09:01;23.15;;;14.52;;
68792;SDS011;55778;54.346;10.210;2023-04-15T13:11:27;21.17;;;14.20;;
68792;SDS011;55778;54.346;10.210;2023-04-15T13:13:55;24.92;;;15.02;;
68792;SDS011;55778;54.346;10.210;2023-04-15T13:16:22;23.75;;;15.02;;
68792;SDS011;55778;54.346;10.210;2023-04-15T13:18:48;23.30;;;14.48;;
68792;SDS011;55778;54.346;10.210;2023-04-15T13:21:15;23.40;;;15.52;;
68792;SDS011;55778;54.346;10.210;2023-04-15T13:23:41;23.88;;;15.23;;
68792;SDS011;55778;54.346;10.210;2023-04-15T13:26:07;25.02;;;15.98;;
68792;SDS011;55778;54.346;10.210;2023-04-15T13:28:32;24.15;;;14.73;;
68792;SDS011;55778;54.346;10.210;2023-04-15T13:30:58;22.20;;;15.20;;
68792;SDS011;55778;54.346;10.210;2023-04-15T13:33:25;24.52;;;14.70;;
68792;SDS011;55778;54.346;10.210;2023-04-15T13:35:51;22.88;;;14.93;;
68792;SDS011;55778;54.346;10.210;2023-04-15T13:38:16;20.83;;;14.35;;
68792;SDS011;55778;54.346;10.210;2023-04-15T13:40:42;22.02;;;14.57;;
68792;SDS011;55778;54.346;10.210;2023-04-15T13:43:07;22.83;;;14.52;;
68792;SDS011;55778;54.346;10.210;2023-04-15T13:45:33;20.88;;;13.82;;
68792;SDS011;55778;54.346;10.210;2023-04-15T13:47:58;21.55;;;14.27;;
68792;SDS011;55778;54.346;10.210;2023-04-15T13:50:23;20.90;;;13.25;;
68792;SDS011;55778;54.346;10.210;2023-04-15T13:52:49;22.83;;;14.18;;
68792;SDS011;55778;54.346;10.210;2023-04-15T13:55:14;20.48;;;13.93;;
68792;SDS011;55778;54.346;10.210;2023-04-15T13:57:40;21.70;;;14.40;;
68792;SDS011;55778;54.346;10.210;2023-04-15T14:00:05;20.55;;;13.80;;
68792;SDS011;55778;54.346;10.210;2023-04-15T14:02:32;22.80;;;13.35;;
68792;SDS011;55778;54.346;10.210;2023-04-15T14:04:57;21.67;;;13.50;;
68792;SDS011;55778;54.346;10.210;2023-04-15T14:07:23;21.25;;;13.75;;
68792;SDS011;55778;54.346;10.210;2023-04-15T14:09:51;20.88;;;14.00;;
68792;SDS011;55778;54.346;10.210;2023-04-15T14:12:16;21.40;;;13.75;;
68792;SDS011;55778;54.346;10.210;2023-04-15T14:14:42;22.67;;;13.57;;
68792;SDS011;55778;54.346;10.210;2023-04-15T14:17:07;19.65;;;13.25;;
68792;SDS011;55778;54.346;10.210;2023-04-15T14:19:33;20.75;;;13.25;;
68792;SDS011;55778;54.346;10.210;2023-04-15T14:21:59;20.40;;;13.10;;